createdAt,value
2022-12-29T00:00:01.685Z,4
2022-12-29T00:01:01.579Z,4
2022-12-29T00:02:01.693Z,3.8
2022-12-29T00:03:01.847Z,3.9
2022-12-29T00:04:02.146Z,3.9
2022-12-29T00:05:02.158Z,3.9
2022-12-29T00:06:02.077Z,3.9
2022-12-29T00:07:01.925Z,3.9
2022-12-29T00:08:01.810Z,4
2022-12-29T00:09:01.869Z,3.9
2022-12-29T00:10:01.702Z,3.8
2022-12-29T00:11:01.745Z,3.8
2022-12-29T00:12:01.592Z,3.8
2022-12-29T00:13:01.635Z,3.8
2022-12-29T00:14:01.437Z,3.8
2022-12-29T00:15:01.442Z,3.7
2022-12-29T00:16:02.448Z,3.8
2022-12-29T00:17:01.375Z,3.7
2022-12-29T00:18:02.411Z,3.7
2022-12-29T00:19:02.361Z,3.7
2022-12-29T00:20:02.247Z,3.7
2022-12-29T00:21:02.145Z,3.6
2022-12-29T00:22:02.128Z,3.6
2022-12-29T00:23:01.974Z,3.7
2022-12-29T00:24:01.926Z,3.7
2022-12-29T00:25:01.957Z,3.7
2022-12-29T00:26:01.692Z,3.7
2022-12-29T00:27:01.757Z,3.6
2022-12-29T00:28:06.501Z,3.7
2022-12-29T00:29:01.557Z,3.5
2022-12-29T00:30:01.562Z,3.6
2022-12-29T00:31:01.400Z,3.5
2022-12-29T00:32:01.457Z,3.5
2022-12-29T00:33:01.475Z,3.5
2022-12-29T00:34:01.331Z,3.5
2022-12-29T00:35:02.369Z,3.5
2022-12-29T00:36:02.247Z,3.5
2022-12-29T00:37:02.204Z,3.5
2022-12-29T00:38:02.097Z,3.5
2022-12-29T00:39:02.117Z,3.5
2022-12-29T00:40:01.951Z,3.5
2022-12-29T00:41:02.160Z,3.4
2022-12-29T00:42:02.198Z,3.5
2022-12-29T00:43:01.981Z,3.5
2022-12-29T00:44:02.051Z,3.5
2022-12-29T00:45:01.826Z,3.6
2022-12-29T00:46:01.734Z,3.5
2022-12-29T00:47:01.486Z,3.4
2022-12-29T00:48:01.680Z,3.4
2022-12-29T00:49:01.532Z,3.4
2022-12-29T00:50:01.506Z,3.4
2022-12-29T00:51:01.369Z,3.4
2022-12-29T00:52:01.444Z,3.5
2022-12-29T00:53:02.383Z,3.4
2022-12-29T00:54:02.250Z,3.4
2022-12-29T00:55:02.290Z,3.5
2022-12-29T00:56:02.204Z,3.4
2022-12-29T00:57:02.255Z,3.4
2022-12-29T00:58:02.096Z,3.4
2022-12-29T00:59:02.128Z,3.4
2022-12-29T01:00:02.026Z,3.4
2022-12-29T01:01:01.986Z,3.4
2022-12-29T01:02:02.228Z,3.5
2022-12-29T01:03:01.634Z,3.4
2022-12-29T01:04:04.242Z,3.4
2022-12-29T01:05:01.495Z,3.3
2022-12-29T01:06:01.491Z,3.4
2022-12-29T01:07:01.316Z,3.4
2022-12-29T01:08:02.321Z,3.4
2022-12-29T01:09:02.218Z,3.4
2022-12-29T01:10:02.262Z,3.5
2022-12-29T01:11:02.111Z,3.4
2022-12-29T01:12:02.155Z,3.4
2022-12-29T01:13:02.059Z,3.4
2022-12-29T01:14:02.065Z,3.4
2022-12-29T01:15:02.107Z,3.5
2022-12-29T01:16:02.054Z,3.5
2022-12-29T01:17:01.939Z,3.5
2022-12-29T01:18:01.975Z,3.5
2022-12-29T01:19:01.831Z,3.4
2022-12-29T01:20:01.756Z,3.5
2022-12-29T01:21:01.793Z,3.5
2022-12-29T01:22:01.638Z,3.5
2022-12-29T01:23:01.614Z,3.5
2022-12-29T01:24:01.423Z,3.6
2022-12-29T01:25:01.500Z,3.5
2022-12-29T01:26:02.346Z,3.6
2022-12-29T01:27:02.227Z,3.6
2022-12-29T01:28:02.275Z,3.6
2022-12-29T01:29:02.212Z,3.6
2022-12-29T01:30:02.304Z,3.6
2022-12-29T01:31:02.207Z,3.5
2022-12-29T01:32:01.947Z,3.6
2022-12-29T01:33:02.013Z,3.6
2022-12-29T01:34:01.929Z,3.6
2022-12-29T01:35:01.887Z,3.6
2022-12-29T01:36:01.960Z,3.6
2022-12-29T01:37:01.812Z,3.6
2022-12-29T01:38:01.811Z,3.6
2022-12-29T01:39:01.857Z,3.6
2022-12-29T01:40:01.702Z,3.6
2022-12-29T01:41:01.735Z,3.6
2022-12-29T01:42:01.547Z,3.7
2022-12-29T01:43:01.561Z,3.6
2022-12-29T01:44:01.493Z,3.6
2022-12-29T01:45:01.389Z,3.6
2022-12-29T01:46:02.372Z,3.6
2022-12-29T01:47:02.033Z,3.6
2022-12-29T01:48:02.065Z,3.6
2022-12-29T01:49:01.897Z,3.7
2022-12-29T01:50:01.803Z,3.6
2022-12-29T01:51:01.887Z,3.6
2022-12-29T01:52:01.714Z,3.6
2022-12-29T01:53:01.759Z,3.6
2022-12-29T01:54:01.607Z,3.6
2022-12-29T01:55:01.536Z,3.6
2022-12-29T01:56:01.363Z,3.6
2022-12-29T01:57:01.452Z,3.6
2022-12-29T01:58:02.389Z,3.5
2022-12-29T01:59:02.240Z,3.6
2022-12-29T02:00:02.307Z,3.7
2022-12-29T02:01:02.358Z,3.6
2022-12-29T02:02:02.266Z,3.6
2022-12-29T02:03:02.402Z,3.6
2022-12-29T02:04:01.362Z,3.6
2022-12-29T02:05:04.551Z,3.6
2022-12-29T02:06:01.810Z,3.6
2022-12-29T02:07:01.810Z,3.6
2022-12-29T02:08:01.618Z,3.6
2022-12-29T02:09:01.675Z,3.6
2022-12-29T02:10:01.455Z,3.6
2022-12-29T02:11:01.838Z,3.6
2022-12-29T02:12:01.600Z,3.6
2022-12-29T02:13:01.611Z,3.7
2022-12-29T02:14:03.688Z,3.6
2022-12-29T02:15:01.740Z,3.6
2022-12-29T02:16:01.878Z,3.5
2022-12-29T02:17:01.681Z,3.6
2022-12-29T02:18:01.635Z,3.6
2022-12-29T02:19:01.503Z,3.6
2022-12-29T02:20:01.548Z,3.6
2022-12-29T02:21:01.368Z,3.6
2022-12-29T02:22:02.409Z,3.5
2022-12-29T02:23:02.247Z,3.6
2022-12-29T02:24:02.365Z,3.5
2022-12-29T02:25:02.289Z,3.5
2022-12-29T02:26:02.324Z,3.5
2022-12-29T02:27:02.218Z,3.6
2022-12-29T02:28:02.353Z,3.6
2022-12-29T02:29:02.240Z,3.6
2022-12-29T02:30:02.305Z,3.5
2022-12-29T02:31:02.251Z,3.6
2022-12-29T02:32:01.864Z,3.6
2022-12-29T02:33:01.991Z,3.6
2022-12-29T02:34:01.862Z,3.6
2022-12-29T02:35:01.815Z,3.6
2022-12-29T02:36:01.867Z,3.6
2022-12-29T02:37:01.823Z,3.6
2022-12-29T02:38:01.764Z,3.5
2022-12-29T02:39:01.813Z,3.5
2022-12-29T02:40:01.642Z,3.6
2022-12-29T02:41:01.697Z,3.6
2022-12-29T02:42:01.497Z,3.6
2022-12-29T02:43:01.498Z,3.6
2022-12-29T02:44:01.372Z,3.5
2022-12-29T02:45:01.556Z,3.6
2022-12-29T02:46:02.403Z,3.6
2022-12-29T02:47:02.047Z,3.5
2022-12-29T02:48:02.080Z,3.6
2022-12-29T02:49:02.018Z,3.6
2022-12-29T02:50:02.043Z,3.7
2022-12-29T02:51:02.038Z,3.6
2022-12-29T02:52:02.002Z,3.6
2022-12-29T02:53:02.011Z,3.6
2022-12-29T02:54:02.068Z,3.7
2022-12-29T02:55:02.004Z,3.7
2022-12-29T02:56:02.044Z,3.6
2022-12-29T02:57:02.108Z,3.7
2022-12-29T02:58:02.020Z,3.7
2022-12-29T02:59:01.968Z,3.8
2022-12-29T03:00:02.020Z,3.7
2022-12-29T03:01:02.005Z,3.8
2022-12-29T03:02:02.033Z,3.8
2022-12-29T03:03:01.737Z,3.8
2022-12-29T03:04:02.296Z,3.8
2022-12-29T03:05:02.182Z,3.8
2022-12-29T03:06:02.292Z,3.9
2022-12-29T03:07:02.144Z,3.9
2022-12-29T03:08:02.129Z,3.9
2022-12-29T03:09:02.109Z,3.8
2022-12-29T03:10:02.149Z,3.8
2022-12-29T03:11:02.210Z,3.9
2022-12-29T03:12:02.056Z,3.9
2022-12-29T03:13:02.195Z,3.8
2022-12-29T03:14:02.101Z,3.8
2022-12-29T03:15:02.135Z,3.8
2022-12-29T03:16:02.051Z,3.9
2022-12-29T03:17:02.030Z,3.8
2022-12-29T03:18:02.081Z,3.8
2022-12-29T03:19:02.031Z,3.8
2022-12-29T03:20:01.990Z,3.8
2022-12-29T03:21:02.055Z,3.8
2022-12-29T03:22:01.974Z,3.8
2022-12-29T03:23:01.863Z,3.9
2022-12-29T03:24:01.919Z,3.9
2022-12-29T03:25:01.724Z,3.8
2022-12-29T03:26:01.671Z,3.8
2022-12-29T03:27:01.664Z,3.8
2022-12-29T03:28:01.575Z,3.8
2022-12-29T03:29:01.577Z,3.8
2022-12-29T03:30:01.480Z,3.8
2022-12-29T03:31:01.509Z,3.8
2022-12-29T03:32:01.317Z,3.8
2022-12-29T03:33:02.319Z,3.9
2022-12-29T03:34:02.266Z,3.8
2022-12-29T03:35:02.275Z,3.8
2022-12-29T03:36:02.105Z,3.9
2022-12-29T03:37:02.143Z,3.8
2022-12-29T03:38:01.985Z,3.8
2022-12-29T03:39:01.927Z,3.8
2022-12-29T03:40:01.995Z,3.8
2022-12-29T03:41:01.876Z,3.8
2022-12-29T03:42:01.796Z,3.7
2022-12-29T03:43:01.791Z,3.8
2022-12-29T03:44:01.634Z,3.7
2022-12-29T03:45:01.646Z,3.7
2022-12-29T03:46:01.486Z,3.8
2022-12-29T03:47:01.339Z,3.8
2022-12-29T03:48:01.401Z,3.7
2022-12-29T03:49:02.348Z,3.8
2022-12-29T03:50:02.274Z,3.7
2022-12-29T03:51:02.312Z,3.7
2022-12-29T03:52:02.188Z,3.6
2022-12-29T03:53:02.222Z,3.6
2022-12-29T03:54:02.107Z,3.6
2022-12-29T03:55:02.078Z,3.6
2022-12-29T03:56:01.940Z,3.6
2022-12-29T03:57:01.897Z,3.6
2022-12-29T03:58:01.952Z,3.6
2022-12-29T03:59:01.758Z,3.6
2022-12-29T04:00:01.768Z,3.6
2022-12-29T04:01:01.838Z,3.6
2022-12-29T04:02:01.684Z,3.6
2022-12-29T04:03:02.058Z,3.7
2022-12-29T04:04:02.296Z,3.6
2022-12-29T04:05:02.142Z,3.7
2022-12-29T04:06:02.146Z,3.7
2022-12-29T04:07:02.003Z,3.7
2022-12-29T04:08:01.902Z,3.7
2022-12-29T04:09:01.985Z,3.7
2022-12-29T04:10:01.858Z,3.8
2022-12-29T04:11:01.760Z,3.8
2022-12-29T04:12:01.812Z,3.8
2022-12-29T04:13:01.618Z,3.8
2022-12-29T04:14:01.984Z,3.8
2022-12-29T04:15:01.795Z,3.7
2022-12-29T04:16:01.903Z,3.8
2022-12-29T04:17:01.838Z,3.7
2022-12-29T04:18:01.875Z,3.8
2022-12-29T04:19:01.691Z,3.8
2022-12-29T04:20:01.763Z,3.7
2022-12-29T04:21:01.641Z,3.8
2022-12-29T04:22:01.698Z,3.7
2022-12-29T04:23:01.484Z,3.7
2022-12-29T04:24:01.475Z,3.7
2022-12-29T04:25:01.294Z,3.7
2022-12-29T04:26:02.311Z,3.7
2022-12-29T04:27:02.270Z,3.7
2022-12-29T04:28:02.371Z,3.7
2022-12-29T04:29:02.241Z,3.7
2022-12-29T04:30:02.640Z,3.7
2022-12-29T04:31:01.509Z,3.6
2022-12-29T04:32:01.885Z,3.7
2022-12-29T04:33:02.009Z,3.7
2022-12-29T04:34:01.842Z,3.7
2022-12-29T04:35:01.779Z,3.7
2022-12-29T04:36:01.847Z,3.7
2022-12-29T04:37:01.666Z,3.6
2022-12-29T04:38:01.605Z,3.6
2022-12-29T04:39:01.464Z,3.7
2022-12-29T04:40:01.482Z,3.7
2022-12-29T04:41:01.314Z,3.7
2022-12-29T04:42:02.382Z,3.7
2022-12-29T04:43:02.301Z,3.7
2022-12-29T04:44:02.351Z,3.7
2022-12-29T04:45:02.293Z,3.7
2022-12-29T04:46:02.395Z,3.6
2022-12-29T04:47:02.202Z,3.7
2022-12-29T04:48:02.334Z,3.7
2022-12-29T04:49:02.240Z,3.7
2022-12-29T04:50:02.327Z,3.7
2022-12-29T04:51:02.274Z,3.7
2022-12-29T04:52:02.329Z,3.7
2022-12-29T04:53:02.176Z,3.7
2022-12-29T04:54:02.223Z,3.7
2022-12-29T04:55:02.106Z,3.7
2022-12-29T04:56:02.134Z,3.7
2022-12-29T04:57:02.075Z,3.7
2022-12-29T04:58:02.064Z,3.7
2022-12-29T04:59:02.181Z,3.6
2022-12-29T05:00:02.144Z,3.6
2022-12-29T05:01:02.170Z,3.7
2022-12-29T05:02:02.101Z,3.6
2022-12-29T05:03:01.636Z,3.6
2022-12-29T05:04:02.205Z,3.6
2022-12-29T05:05:01.280Z,3.6
2022-12-29T05:06:02.306Z,3.7
2022-12-29T05:07:02.144Z,3.6
2022-12-29T05:08:02.272Z,3.6
2022-12-29T05:09:02.208Z,3.6
2022-12-29T05:10:02.280Z,3.7
2022-12-29T05:11:02.186Z,3.6
2022-12-29T05:12:02.308Z,3.7
2022-12-29T05:13:02.246Z,3.7
2022-12-29T05:14:02.368Z,3.7
2022-12-29T05:15:02.288Z,3.8
2022-12-29T05:16:02.360Z,3.7
2022-12-29T05:17:02.275Z,3.8
2022-12-29T05:18:02.338Z,3.8
2022-12-29T05:19:02.311Z,3.8
2022-12-29T05:20:02.292Z,3.7
2022-12-29T05:21:02.286Z,3.7
2022-12-29T05:22:02.337Z,3.7
2022-12-29T05:23:02.277Z,3.7
2022-12-29T05:24:02.317Z,3.7
2022-12-29T05:25:02.257Z,3.6
2022-12-29T05:26:02.234Z,3.7
2022-12-29T05:27:02.193Z,3.7
2022-12-29T05:28:02.251Z,3.7
2022-12-29T05:29:02.186Z,3.7
2022-12-29T05:30:02.185Z,3.6
2022-12-29T05:31:02.216Z,3.7
2022-12-29T05:32:02.210Z,3.7
2022-12-29T05:33:02.192Z,3.7
2022-12-29T05:34:02.110Z,3.7
2022-12-29T05:35:02.225Z,3.7
2022-12-29T05:36:02.100Z,3.6
2022-12-29T05:37:02.070Z,3.7
2022-12-29T05:38:01.983Z,3.6
2022-12-29T05:39:01.933Z,3.7
2022-12-29T05:40:01.896Z,3.7
2022-12-29T05:41:01.901Z,3.7
2022-12-29T05:42:01.863Z,3.7
2022-12-29T05:43:01.843Z,3.7
2022-12-29T05:44:01.769Z,3.7
2022-12-29T05:45:01.730Z,3.7
2022-12-29T05:46:01.651Z,3.7
2022-12-29T05:47:01.369Z,3.7
2022-12-29T05:48:02.298Z,3.8
2022-12-29T05:49:02.266Z,3.7
2022-12-29T05:50:02.325Z,3.8
2022-12-29T05:51:02.256Z,3.8
2022-12-29T05:52:02.274Z,3.8
2022-12-29T05:53:02.166Z,3.8
2022-12-29T05:54:02.169Z,3.8
2022-12-29T05:55:02.048Z,3.9
2022-12-29T05:56:01.952Z,3.8
2022-12-29T05:57:01.830Z,3.9
2022-12-29T05:58:01.809Z,3.8
2022-12-29T05:59:01.747Z,3.9
2022-12-29T06:00:01.647Z,3.9
2022-12-29T06:01:01.534Z,3.9
2022-12-29T06:02:02.484Z,3.9
2022-12-29T06:03:01.898Z,3.9
2022-12-29T06:04:02.389Z,3.9
2022-12-29T06:05:01.453Z,4
2022-12-29T06:06:01.773Z,4
2022-12-29T06:07:01.620Z,4
2022-12-29T06:08:01.537Z,4
2022-12-29T06:09:01.449Z,4
2022-12-29T06:10:01.361Z,4.1
2022-12-29T06:11:02.331Z,4.1
2022-12-29T06:12:02.258Z,4.1
2022-12-29T06:13:02.315Z,4
2022-12-29T06:14:02.336Z,4.1
2022-12-29T06:15:02.297Z,4.1
2022-12-29T06:16:02.242Z,4.1
2022-12-29T06:17:02.122Z,4.1
2022-12-29T06:18:02.095Z,4.2
2022-12-29T06:19:02.126Z,4.2
2022-12-29T06:20:02.145Z,4.2
2022-12-29T06:21:02.136Z,4.3
2022-12-29T06:22:02.160Z,4.2
2022-12-29T06:23:02.183Z,4.3
2022-12-29T06:24:02.157Z,4.2
2022-12-29T06:25:05.058Z,4.3
2022-12-29T06:26:02.253Z,4.3
2022-12-29T06:27:02.344Z,4.3
2022-12-29T06:28:02.255Z,4.3
2022-12-29T06:29:02.241Z,4.2
2022-12-29T06:30:02.268Z,4.2
2022-12-29T06:31:02.231Z,4.3
2022-12-29T06:32:02.026Z,4.3
2022-12-29T06:33:02.087Z,4.3
2022-12-29T06:34:06.555Z,4.3
2022-12-29T06:35:01.302Z,4.2
2022-12-29T06:36:02.359Z,4.3
2022-12-29T06:37:02.232Z,4.3
2022-12-29T06:38:02.197Z,4.2
2022-12-29T06:39:02.086Z,4.2
2022-12-29T06:40:02.057Z,4.2
2022-12-29T06:41:01.942Z,4.3
2022-12-29T06:42:01.948Z,4.2
2022-12-29T06:43:01.931Z,4.2
2022-12-29T06:44:01.777Z,4.1
2022-12-29T06:45:01.840Z,4.2
2022-12-29T06:46:01.752Z,4.2
2022-12-29T06:47:01.739Z,4.1
2022-12-29T06:48:01.641Z,4.1
2022-12-29T06:49:01.570Z,4.1
2022-12-29T06:50:01.556Z,4.2
2022-12-29T06:51:01.355Z,4.2
2022-12-29T06:52:04.159Z,4.2
2022-12-29T06:53:01.449Z,4.2
2022-12-29T06:54:01.415Z,4.2
2022-12-29T06:55:02.382Z,4.3
2022-12-29T06:56:02.238Z,4.2
2022-12-29T06:57:02.288Z,4.3
2022-12-29T06:58:02.132Z,4.2
2022-12-29T06:59:02.388Z,4.3
2022-12-29T07:00:02.144Z,4.3
2022-12-29T07:01:02.198Z,4.3
2022-12-29T07:02:01.830Z,4.3
2022-12-29T07:03:01.557Z,4.4
2022-12-29T07:04:01.806Z,4.4
2022-12-29T07:05:01.661Z,4.4
2022-12-29T07:06:01.727Z,4.3
2022-12-29T07:07:01.560Z,4.3
2022-12-29T07:08:01.540Z,4.4
2022-12-29T07:09:01.356Z,4.4
2022-12-29T07:10:01.395Z,4.4
2022-12-29T07:11:02.391Z,4.4
2022-12-29T07:12:02.253Z,4.5
2022-12-29T07:13:02.266Z,4.5
2022-12-29T07:14:02.121Z,4.5
2022-12-29T07:15:02.171Z,4.5
2022-12-29T07:16:02.021Z,4.5
2022-12-29T07:17:01.849Z,4.5
2022-12-29T07:18:01.920Z,4.5
2022-12-29T07:19:01.755Z,4.6
2022-12-29T07:20:01.726Z,4.6
2022-12-29T07:21:01.778Z,4.6
2022-12-29T07:22:01.625Z,4.6
2022-12-29T07:23:01.651Z,4.6
2022-12-29T07:24:01.483Z,4.6
2022-12-29T07:25:02.263Z,4.6
2022-12-29T07:26:02.231Z,4.6
2022-12-29T07:27:02.271Z,4.7
2022-12-29T07:28:02.111Z,4.7
2022-12-29T07:29:02.158Z,4.7
2022-12-29T07:30:01.947Z,4.7
2022-12-29T07:31:01.842Z,4.6
2022-12-29T07:32:01.839Z,4.7
2022-12-29T07:33:01.915Z,4.7
2022-12-29T07:34:01.761Z,4.7
2022-12-29T07:35:01.745Z,4.7
2022-12-29T07:36:01.712Z,4.7
2022-12-29T07:37:01.528Z,4.7
2022-12-29T07:38:01.536Z,4.7
2022-12-29T07:39:01.380Z,4.7
2022-12-29T07:40:01.366Z,4.7
2022-12-29T07:41:02.319Z,4.8
2022-12-29T07:42:05.004Z,4.7
2022-12-29T07:43:02.103Z,4.7
2022-12-29T07:44:02.233Z,4.7
2022-12-29T07:45:02.024Z,4.7
2022-12-29T07:46:02.061Z,4.8
2022-12-29T07:47:02.225Z,4.8
2022-12-29T07:48:02.307Z,4.8
2022-12-29T07:49:02.347Z,4.8
2022-12-29T07:50:02.190Z,4.9
2022-12-29T07:51:02.228Z,4.9
2022-12-29T07:52:02.134Z,4.9
2022-12-29T07:53:02.129Z,4.9
2022-12-29T07:54:01.958Z,4.9
2022-12-29T07:55:01.886Z,4.9
2022-12-29T07:56:01.854Z,5
2022-12-29T07:57:01.705Z,5
2022-12-29T07:58:01.658Z,5
2022-12-29T07:59:01.703Z,5
2022-12-29T08:00:01.528Z,5.1
2022-12-29T08:01:01.538Z,5.1
2022-12-29T08:02:02.515Z,5.1
2022-12-29T08:03:01.846Z,5.3
2022-12-29T08:04:01.906Z,5.3
2022-12-29T08:05:01.763Z,5.5
2022-12-29T08:06:01.841Z,5.4
2022-12-29T08:07:01.671Z,5.6
2022-12-29T08:08:01.661Z,5.6
2022-12-29T08:09:06.050Z,5.7
2022-12-29T08:10:01.473Z,5.9
2022-12-29T08:11:01.507Z,5.9
2022-12-29T08:12:01.331Z,6
2022-12-29T08:13:02.377Z,6
2022-12-29T08:14:02.206Z,6
2022-12-29T08:15:02.224Z,6.1
2022-12-29T08:16:02.090Z,6.2
2022-12-29T08:17:01.400Z,6.2
2022-12-29T08:18:01.450Z,6.1
2022-12-29T08:19:02.351Z,6.2
2022-12-29T08:20:02.281Z,6.1
2022-12-29T08:21:02.236Z,6.1
2022-12-29T08:22:02.066Z,6
2022-12-29T08:23:02.071Z,5.8
2022-12-29T08:24:01.928Z,5.9
2022-12-29T08:25:01.936Z,5.8
2022-12-29T08:26:01.939Z,5.9
2022-12-29T08:27:06.991Z,5.9
2022-12-29T08:28:01.675Z,5.8
2022-12-29T08:29:01.735Z,5.9
2022-12-29T08:30:01.628Z,5.9
2022-12-29T08:31:01.734Z,6
2022-12-29T08:32:01.516Z,5.9
2022-12-29T08:33:01.470Z,5.9
2022-12-29T08:34:01.355Z,5.9
2022-12-29T08:35:02.411Z,5.9
2022-12-29T08:36:02.293Z,5.8
2022-12-29T08:37:02.249Z,5.7
2022-12-29T08:38:02.153Z,5.9
2022-12-29T08:39:02.210Z,5.9
2022-12-29T08:40:02.065Z,5.9
2022-12-29T08:41:02.091Z,5.9
2022-12-29T08:42:01.964Z,5.8
2022-12-29T08:43:01.841Z,6.1
2022-12-29T08:44:01.876Z,5.9
2022-12-29T08:45:01.741Z,6.2
2022-12-29T08:46:01.653Z,6.2
2022-12-29T08:47:01.733Z,6.3
2022-12-29T08:48:01.717Z,6.4
2022-12-29T08:49:01.595Z,6.8
2022-12-29T08:50:01.589Z,6.7
2022-12-29T08:51:01.415Z,6.9
2022-12-29T08:52:01.446Z,7
2022-12-29T08:53:02.387Z,6.7
2022-12-29T08:54:02.240Z,6.8
2022-12-29T08:55:02.273Z,6.5
2022-12-29T08:56:04.962Z,6.8
2022-12-29T08:57:01.445Z,6.8
2022-12-29T08:58:01.436Z,6.6
2022-12-29T08:59:01.415Z,7.1
2022-12-29T09:00:02.352Z,7.2
2022-12-29T09:01:02.173Z,7.3
2022-12-29T09:02:02.195Z,7.3
2022-12-29T09:03:01.721Z,7.4
2022-12-29T09:04:17.266Z,7.4
2022-12-29T09:05:01.437Z,7.4
2022-12-29T09:06:01.545Z,7.5
2022-12-29T09:07:01.370Z,7.3
2022-12-29T09:08:02.393Z,7.3
2022-12-29T09:09:02.232Z,7.4
2022-12-29T09:10:02.306Z,7.4
2022-12-29T09:11:02.126Z,7.6
2022-12-29T09:12:02.149Z,8.1
2022-12-29T09:13:01.964Z,8.1
2022-12-29T09:14:01.877Z,8
2022-12-29T09:15:01.905Z,7.7
2022-12-29T09:16:01.798Z,7.5
2022-12-29T09:17:01.656Z,7.7
2022-12-29T09:18:01.695Z,7.8
2022-12-29T09:19:01.525Z,8.2
2022-12-29T09:20:01.492Z,7.9
2022-12-29T09:21:01.290Z,8.2
2022-12-29T09:22:02.358Z,8.5
2022-12-29T09:23:02.211Z,8.1
2022-12-29T09:24:02.258Z,8.6
2022-12-29T09:25:02.069Z,8.4
2022-12-29T09:26:02.158Z,8.6
2022-12-29T09:27:01.918Z,8.4
2022-12-29T09:28:01.901Z,8.4
2022-12-29T09:29:01.848Z,8.6
2022-12-29T09:30:01.705Z,8.4
2022-12-29T09:31:01.780Z,8.5
2022-12-29T09:32:01.583Z,8.9
2022-12-29T09:33:01.530Z,9
2022-12-29T09:34:01.430Z,9.6
2022-12-29T09:35:01.444Z,9.1
2022-12-29T09:36:02.308Z,9.2
2022-12-29T09:37:02.182Z,9
2022-12-29T09:38:02.245Z,9.1
2022-12-29T09:39:02.073Z,8.6
2022-12-29T09:40:02.114Z,8.6
2022-12-29T09:41:01.959Z,8.3
2022-12-29T09:42:01.911Z,8.2
2022-12-29T09:43:01.897Z,8.4
2022-12-29T09:44:01.768Z,8.3
2022-12-29T09:45:01.702Z,8.3
2022-12-29T09:46:01.587Z,8
2022-12-29T09:47:01.551Z,7.9
2022-12-29T09:48:05.420Z,8.2
2022-12-29T09:49:01.485Z,8.6
2022-12-29T09:50:01.492Z,8.4
2022-12-29T09:51:01.364Z,8.7
2022-12-29T09:52:02.365Z,8.7
2022-12-29T09:53:02.191Z,8.5
2022-12-29T09:54:02.258Z,8.6
2022-12-29T09:55:05.195Z,8.4
2022-12-29T09:56:01.785Z,8
2022-12-29T09:57:01.778Z,8
2022-12-29T09:58:01.678Z,7.9
2022-12-29T09:59:01.660Z,7.9
2022-12-29T10:00:01.492Z,7.8
2022-12-29T10:01:01.529Z,8
2022-12-29T10:02:01.441Z,8
2022-12-29T10:03:02.099Z,8.1
2022-12-29T10:04:02.216Z,8.2
2022-12-29T10:05:02.109Z,8.2
2022-12-29T10:06:02.125Z,8.3
2022-12-29T10:07:28.355Z,8.5
2022-12-29T10:08:01.539Z,8.3
2022-12-29T10:09:01.543Z,8.2
2022-12-29T10:10:01.432Z,8.2
2022-12-29T10:11:02.385Z,8.3
2022-12-29T10:12:02.262Z,8.2
2022-12-29T10:13:02.213Z,7.9
2022-12-29T10:14:02.097Z,8
2022-12-29T10:15:02.156Z,8
2022-12-29T10:16:02.067Z,8
2022-12-29T10:17:01.988Z,8.2
2022-12-29T10:18:01.967Z,8.3
2022-12-29T10:19:01.815Z,8.4
2022-12-29T10:20:01.778Z,8.5
2022-12-29T10:21:01.793Z,8.5
2022-12-29T10:22:01.654Z,8.8
2022-12-29T10:23:01.594Z,9.2
2022-12-29T10:24:01.459Z,9.2
2022-12-29T10:25:01.509Z,9.2
2022-12-29T10:26:01.349Z,8.8
2022-12-29T10:27:02.386Z,8.8
2022-12-29T10:28:02.216Z,8.9
2022-12-29T10:29:02.267Z,9
2022-12-29T10:30:02.133Z,8.6
2022-12-29T10:31:06.834Z,8.4
2022-12-29T10:32:01.713Z,8.4
2022-12-29T10:33:01.678Z,8.4
2022-12-29T10:34:01.764Z,8.3
2022-12-29T10:35:01.660Z,8.2
2022-12-29T10:36:01.604Z,8.1
2022-12-29T10:37:01.419Z,8.1
2022-12-29T10:38:01.386Z,8
2022-12-29T10:39:02.414Z,8
2022-12-29T10:40:02.348Z,7.8
2022-12-29T10:41:02.219Z,7.8
2022-12-29T10:42:02.144Z,7.7
2022-12-29T10:43:02.178Z,7.9
2022-12-29T10:44:02.218Z,7.9
2022-12-29T10:45:02.260Z,8
2022-12-29T10:46:02.127Z,8
2022-12-29T10:47:01.954Z,8
2022-12-29T10:48:01.937Z,8.5
2022-12-29T10:49:01.813Z,8.3
2022-12-29T10:50:01.804Z,8.2
2022-12-29T10:51:02.373Z,8.2
2022-12-29T10:52:01.360Z,8.4
2022-12-29T10:53:01.417Z,8.3
2022-12-29T10:54:02.353Z,8.3
2022-12-29T10:55:02.246Z,8.3
2022-12-29T10:56:02.394Z,8.3
2022-12-29T10:57:02.179Z,8.3
2022-12-29T10:58:02.297Z,8.3
2022-12-29T10:59:01.996Z,8.3
2022-12-29T11:00:02.002Z,8.5
2022-12-29T11:01:01.919Z,8.4
2022-12-29T11:02:02.075Z,8.6
2022-12-29T11:03:01.802Z,8.6
2022-12-29T11:04:02.195Z,8.5
2022-12-29T11:05:02.088Z,8.4
2022-12-29T11:06:02.126Z,8.4
2022-12-29T11:07:01.939Z,8.3
2022-12-29T11:08:01.912Z,8.4
2022-12-29T11:09:01.851Z,8.4
2022-12-29T11:10:01.732Z,8.3
2022-12-29T11:11:01.790Z,8.3
2022-12-29T11:12:01.607Z,8.3
2022-12-29T11:13:01.685Z,8.3
2022-12-29T11:14:01.500Z,8.3
2022-12-29T11:15:01.518Z,8.5
2022-12-29T11:16:01.350Z,8.4
2022-12-29T11:17:01.394Z,8.5
2022-12-29T11:18:01.458Z,8.5
2022-12-29T11:19:02.330Z,8.5
2022-12-29T11:20:02.299Z,8.4
2022-12-29T11:21:02.696Z,8.4
2022-12-29T11:22:01.391Z,8.4
2022-12-29T11:23:01.471Z,8.6
2022-12-29T11:24:02.359Z,8.5
2022-12-29T11:25:02.233Z,8.4
2022-12-29T11:26:02.252Z,8.4
2022-12-29T11:27:02.122Z,8.5
2022-12-29T11:28:02.129Z,8.6
2022-12-29T11:29:01.929Z,8.5
2022-12-29T11:30:01.935Z,8.4
2022-12-29T11:31:01.998Z,8.5
2022-12-29T11:32:01.477Z,8.6
2022-12-29T11:33:01.493Z,8.5
2022-12-29T11:34:01.346Z,8.6
2022-12-29T11:35:02.386Z,8.5
2022-12-29T11:36:01.357Z,8.5
2022-12-29T11:37:01.419Z,8.5
2022-12-29T11:38:02.364Z,8.6
2022-12-29T11:39:02.203Z,8.5
2022-12-29T11:40:02.260Z,8.4
2022-12-29T11:41:02.078Z,8.4
2022-12-29T11:42:02.114Z,8.4
2022-12-29T11:43:01.960Z,8.4
2022-12-29T11:44:01.903Z,8.4
2022-12-29T11:45:05.119Z,8.4
2022-12-29T11:46:01.746Z,8.4
2022-12-29T11:47:01.606Z,8.4
2022-12-29T11:48:01.611Z,8.5
2022-12-29T11:49:01.405Z,8.4
2022-12-29T11:50:01.429Z,8.4
2022-12-29T11:51:02.396Z,8.4
2022-12-29T11:52:02.291Z,8.4
2022-12-29T11:53:02.354Z,8.4
2022-12-29T11:54:02.219Z,8.4
2022-12-29T11:55:02.311Z,8.3
2022-12-29T11:56:02.215Z,8.4
2022-12-29T11:57:02.335Z,8.5
2022-12-29T11:58:02.256Z,8.5
2022-12-29T11:59:02.361Z,8.4
2022-12-29T12:00:02.276Z,8.4
2022-12-29T12:01:02.369Z,8.5
2022-12-29T12:02:02.130Z,8.5
2022-12-29T12:03:01.656Z,8.5
2022-12-29T12:04:01.761Z,8.5
2022-12-29T12:05:01.866Z,8.5
2022-12-29T12:06:01.832Z,8.5
2022-12-29T12:07:01.702Z,8.5
2022-12-29T12:08:01.640Z,8.6
2022-12-29T12:09:01.489Z,8.7
2022-12-29T12:10:06.868Z,8.6
2022-12-29T12:11:01.959Z,8.7
2022-12-29T12:12:01.929Z,8.7
2022-12-29T12:13:01.973Z,8.7
2022-12-29T12:14:01.847Z,8.7
2022-12-29T12:15:01.758Z,8.7
2022-12-29T12:16:01.790Z,8.8
2022-12-29T12:17:01.713Z,8.7
2022-12-29T12:18:01.691Z,8.7
2022-12-29T12:19:01.742Z,8.7
2022-12-29T12:20:01.562Z,8.8
2022-12-29T12:21:01.548Z,8.7
2022-12-29T12:22:01.417Z,8.9
2022-12-29T12:23:01.373Z,8.9
2022-12-29T12:24:02.378Z,8.9
2022-12-29T12:25:02.264Z,8.9
2022-12-29T12:26:01.518Z,8.9
2022-12-29T12:27:01.349Z,9
2022-12-29T12:28:02.384Z,8.9
2022-12-29T12:29:02.217Z,8.9
2022-12-29T12:30:02.233Z,9
2022-12-29T12:31:02.153Z,8.9
2022-12-29T12:32:01.870Z,8.9
2022-12-29T12:33:01.867Z,8.9
2022-12-29T12:34:01.796Z,8.9
2022-12-29T12:35:01.641Z,8.9
2022-12-29T12:36:01.635Z,8.9
2022-12-29T12:37:01.447Z,8.9
2022-12-29T12:38:01.501Z,8.9
2022-12-29T12:39:01.441Z,8.9
2022-12-29T12:40:01.475Z,8.9
2022-12-29T12:41:01.318Z,8.9
2022-12-29T12:42:02.305Z,8.8
2022-12-29T12:43:02.287Z,8.7
2022-12-29T12:44:02.323Z,8.7
2022-12-29T12:45:02.372Z,8.7
2022-12-29T12:46:02.348Z,8.7
2022-12-29T12:47:02.138Z,8.7
2022-12-29T12:48:02.208Z,8.7
2022-12-29T12:49:02.209Z,8.6
2022-12-29T12:50:02.281Z,8.6
2022-12-29T12:51:02.330Z,8.6
2022-12-29T12:52:05.007Z,8.6
2022-12-29T12:53:01.482Z,8.6
2022-12-29T12:54:01.495Z,8.7
2022-12-29T12:55:01.292Z,8.7
2022-12-29T12:56:02.346Z,8.6
2022-12-29T12:57:02.217Z,8.6
2022-12-29T12:58:02.213Z,8.6
2022-12-29T12:59:09.099Z,8.6
2022-12-29T13:00:01.822Z,8.6
2022-12-29T13:01:01.853Z,8.7
2022-12-29T13:02:01.790Z,8.6
2022-12-29T13:03:02.373Z,8.6
2022-12-29T13:04:02.015Z,8.6
2022-12-29T13:05:02.154Z,8.6
2022-12-29T13:06:02.114Z,8.7
2022-12-29T13:07:02.258Z,8.7
2022-12-29T13:08:02.092Z,8.7
2022-12-29T13:09:02.118Z,8.8
2022-12-29T13:10:01.971Z,8.8
2022-12-29T13:11:01.896Z,8.8
2022-12-29T13:12:01.938Z,8.8
2022-12-29T13:13:01.815Z,8.9
2022-12-29T13:14:01.837Z,8.9
2022-12-29T13:15:01.810Z,8.9
2022-12-29T13:16:01.703Z,9
2022-12-29T13:17:01.818Z,9
2022-12-29T13:18:01.879Z,8.9
2022-12-29T13:19:01.759Z,9
2022-12-29T13:20:01.816Z,9
2022-12-29T13:21:01.659Z,9
2022-12-29T13:22:06.200Z,8.9
2022-12-29T13:23:01.875Z,9.1
2022-12-29T13:24:01.963Z,9.1
2022-12-29T13:25:01.798Z,9.2
2022-12-29T13:26:01.672Z,9.3
2022-12-29T13:27:01.726Z,9.3
2022-12-29T13:28:01.529Z,9.3
2022-12-29T13:29:01.514Z,9.2
2022-12-29T13:30:01.315Z,9.2
2022-12-29T13:31:02.328Z,9.3
2022-12-29T13:32:01.570Z,9.2
2022-12-29T13:33:01.558Z,9.2
2022-12-29T13:34:01.383Z,9.3
2022-12-29T13:35:01.546Z,9.2
2022-12-29T13:36:01.393Z,9.3
2022-12-29T13:37:01.459Z,9.3
2022-12-29T13:38:02.411Z,9.2
2022-12-29T13:39:01.339Z,9.3
2022-12-29T13:40:02.405Z,9.2
2022-12-29T13:41:02.209Z,9.2
2022-12-29T13:42:02.256Z,9.2
2022-12-29T13:43:02.114Z,9.3
2022-12-29T13:44:02.223Z,9.3
2022-12-29T13:45:02.126Z,9.2
2022-12-29T13:46:02.153Z,9.2
2022-12-29T13:47:01.925Z,9.3
2022-12-29T13:48:02.098Z,9.2
2022-12-29T13:49:02.158Z,9.2